This is the latest recevied weather packets stored in our database for station/object ED4YAZ-13. If no packets are shown the sender has not sent any weather packets the latest 10 day(s).
| Time | Temp. | Humidity | Pressure | Rain* | Wind** | Luminosity | Snow |
|---|---|---|---|---|---|---|---|
| 1777809108 | 17.78° C | 66% | 1012.9 hPa | - | - | - | - |
| 1777808508 | 16.67° C | 71% | 1013.5 hPa | - | - | - | - |
| 1777807908 | 17.78° C | 68% | 1013.1 hPa | - | - | - | - |
| 1777807306 | 17.78° C | 69% | 1013.2 hPa | - | - | - | - |
| 1777806705 | 17.78° C | 65% | 1013.3 hPa | - | - | - | - |
| 1777806098 | 17.78° C | 68% | 1013.4 hPa | - | - | - | - |
| 1777805491 | 17.78° C | 68% | 1013.5 hPa | - | - | - | - |
| 1777804891 | 17.78° C | 69% | 1013.6 hPa | - | - | - | - |
| 1777804289 | 16.67° C | 71% | 1014.2 hPa | - | - | - | - |
| 1777803689 | 15.56° C | 78% | 1014.5 hPa | - | - | - | - |
| 1777803094 | 16.11° C | 81% | 1014.6 hPa | - | - | - | - |
| 1777803094 | 16.11° C | 81% | 1014.6 hPa | - | - | - | - |
| 1777803089 | 16.11° C | 81% | 1014.6 hPa | - | - | - | - |
| 1777802488 | 15.56° C | 83% | 1014.8 hPa | - | - | - | - |
| 1777801882 | 15° C | 83% | 1015.1 hPa | - | - | - | - |
| 1777801882 | 15° C | 83% | 1015.1 hPa | - | - | - | - |
| 1777801271 | 14.44° C | 87% | 1015.6 hPa | - | - | - | - |
| 1777801271 | 14.44° C | 87% | 1015.6 hPa | - | - | - | - |
| 1777800671 | 13.89° C | 86% | 1015.7 hPa | - | - | - | - |
| 1777800671 | 13.89° C | 86% | 1015.7 hPa | - | - | - | - |
| 1777800071 | 14.44° C | 86% | 1015.5 hPa | - | - | - | - |
| 1777799471 | 15° C | 87% | 1015.2 hPa | - | - | - | - |
| 1777799471 | 15° C | 87% | 1015.2 hPa | - | - | - | - |
| 1777798857 | 13.33° C | 91% | 1015.8 hPa | - | - | - | - |
| 1777798257 | 12.78° C | 92% | 1015.8 hPa | - | - | - | - |
* Rain since midnight (hover to see other rain measurements)
** Current wind speed in m/s (hover to see current wind gust speed)